sensor_id;sensor_type;location;lat;lon;timestamp;temperature;humidity
23560;DHT22;11958;50.836;4.438;2023-06-01T00:02:02;16.30;74.30
23560;DHT22;11958;50.836;4.438;2023-06-01T00:04:28;16.30;74.10
23560;DHT22;11958;50.836;4.438;2023-06-01T00:06:54;16.20;74.30
23560;DHT22;11958;50.836;4.438;2023-06-01T00:09:20;16.20;74.70
23560;DHT22;11958;50.836;4.438;2023-06-01T00:11:46;16.20;74.90
23560;DHT22;11958;50.836;4.438;2023-06-01T00:14:12;16.10;74.90
23560;DHT22;11958;50.836;4.438;2023-06-01T00:16:37;16.00;75.50
23560;DHT22;11958;50.836;4.438;2023-06-01T00:19:03;15.90;75.80
23560;DHT22;11958;50.836;4.438;2023-06-01T00:21:30;15.90;75.70
23560;DHT22;11958;50.836;4.438;2023-06-01T00:24:05;15.90;75.80
23560;DHT22;11958;50.836;4.438;2023-06-01T00:26:31;15.80;76.40
23560;DHT22;11958;50.836;4.438;2023-06-01T00:29:01;15.70;76.30
23560;DHT22;11958;50.836;4.438;2023-06-01T00:31:26;15.80;76.10
23560;DHT22;11958;50.836;4.438;2023-06-01T00:33:52;15.70;75.80
23560;DHT22;11958;50.836;4.438;2023-06-01T00:36:19;15.70;76.10
23560;DHT22;11958;50.836;4.438;2023-06-01T00:38:47;15.60;76.40
23560;DHT22;11958;50.836;4.438;2023-06-01T01:42:41;15.00;78.60
23560;DHT22;11958;50.836;4.438;2023-06-01T01:45:39;14.90;78.70
23560;DHT22;11958;50.836;4.438;2023-06-01T01:48:26;14.80;78.90
23560;DHT22;11958;50.836;4.438;2023-06-01T01:58:23;14.80;79.10
23560;DHT22;11958;50.836;4.438;2023-06-01T02:01:30;14.60;79.40
23560;DHT22;11958;50.836;4.438;2023-06-01T02:04:06;14.60;79.40
23560;DHT22;11958;50.836;4.438;2023-06-01T02:06:47;14.50;79.50
23560;DHT22;11958;50.836;4.438;2023-06-01T02:11:51;14.40;79.70
23560;DHT22;11958;50.836;4.438;2023-06-01T02:53:18;13.80;82.00
23560;DHT22;11958;50.836;4.438;2023-06-01T03:03:49;13.80;81.90
23560;DHT22;11958;50.836;4.438;2023-06-01T04:24:30;13.20;83.10
23560;DHT22;11958;50.836;4.438;2023-06-01T04:31:03;13.00;83.10
23560;DHT22;11958;50.836;4.438;2023-06-01T04:34:27;13.10;83.00
23560;DHT22;11958;50.836;4.438;2023-06-01T04:40:52;13.50;81.50
23560;DHT22;11958;50.836;4.438;2023-06-01T05:08:01;13.40;80.80
23560;DHT22;11958;50.836;4.438;2023-06-01T05:10:58;13.70;79.70
23560;DHT22;11958;50.836;4.438;2023-06-01T06:02:19;13.60;79.30
23560;DHT22;11958;50.836;4.438;2023-06-01T06:04:58;14.10;77.90
23560;DHT22;11958;50.836;4.438;2023-06-01T06:07:37;14.10;77.40
23560;DHT22;11958;50.836;4.438;2023-06-01T06:10:25;14.10;77.70
23560;DHT22;11958;50.836;4.438;2023-06-01T06:19:49;13.70;78.10
23560;DHT22;11958;50.836;4.438;2023-06-01T06:22:25;13.80;78.20
23560;DHT22;11958;50.836;4.438;2023-06-01T06:42:17;13.90;77.40
23560;DHT22;11958;50.836;4.438;2023-06-01T06:44:45;14.40;75.70
23560;DHT22;11958;50.836;4.438;2023-06-01T06:47:11;14.20;75.50
23560;DHT22;11958;50.836;4.438;2023-06-01T06:49:40;14.00;76.50
23560;DHT22;11958;50.836;4.438;2023-06-01T06:52:08;13.90;77.00
23560;DHT22;11958;50.836;4.438;2023-06-01T06:54:35;13.80;76.90
23560;DHT22;11958;50.836;4.438;2023-06-01T06:57:01;13.70;77.10
23560;DHT22;11958;50.836;4.438;2023-06-01T06:59:31;13.60;77.80
23560;DHT22;11958;50.836;4.438;2023-06-01T07:01:56;13.50;77.70
23560;DHT22;11958;50.836;4.438;2023-06-01T07:04:25;13.80;77.40
23560;DHT22;11958;50.836;4.438;2023-06-01T07:06:50;14.00;76.90
23560;DHT22;11958;50.836;4.438;2023-06-01T07:09:17;14.10;75.20
23560;DHT22;11958;50.836;4.438;2023-06-01T07:11:43;13.90;76.10
23560;DHT22;11958;50.836;4.438;2023-06-01T07:16:52;14.40;75.20
23560;DHT22;11958;50.836;4.438;2023-06-01T07:19:18;14.30;74.80
23560;DHT22;11958;50.836;4.438;2023-06-01T07:21:44;14.40;74.20
23560;DHT22;11958;50.836;4.438;2023-06-01T07:24:10;14.60;73.70
23560;DHT22;11958;50.836;4.438;2023-06-01T07:26:36;14.40;74.20
23560;DHT22;11958;50.836;4.438;2023-06-01T07:29:01;14.70;73.60
23560;DHT22;11958;50.836;4.438;2023-06-01T07:31:27;14.70;73.90
23560;DHT22;11958;50.836;4.438;2023-06-01T07:33:53;14.80;73.20
23560;DHT22;11958;50.836;4.438;2023-06-01T07:36:21;15.40;70.80
23560;DHT22;11958;50.836;4.438;2023-06-01T07:38:51;15.60;68.40
23560;DHT22;11958;50.836;4.438;2023-06-01T07:41:17;15.50;68.90
23560;DHT22;11958;50.836;4.438;2023-06-01T07:44:03;15.80;68.30
23560;DHT22;11958;50.836;4.438;2023-06-01T07:46:46;16.40;65.30
23560;DHT22;11958;50.836;4.438;2023-06-01T07:49:13;16.40;64.80
23560;DHT22;11958;50.836;4.438;2023-06-01T07:51:40;15.80;66.40
23560;DHT22;11958;50.836;4.438;2023-06-01T07:54:06;15.70;67.50
23560;DHT22;11958;50.836;4.438;2023-06-01T07:56:33;15.80;68.70
23560;DHT22;11958;50.836;4.438;2023-06-01T07:58:59;15.80;67.00
23560;DHT22;11958;50.836;4.438;2023-06-01T08:01:25;15.60;68.70
23560;DHT22;11958;50.836;4.438;2023-06-01T08:03:51;15.70;68.70
23560;DHT22;11958;50.836;4.438;2023-06-01T08:06:17;15.80;67.70
23560;DHT22;11958;50.836;4.438;2023-06-01T08:08:46;15.70;68.80
23560;DHT22;11958;50.836;4.438;2023-06-01T08:11:15;15.70;68.60
23560;DHT22;11958;50.836;4.438;2023-06-01T08:13:40;15.70;69.00
23560;DHT22;11958;50.836;4.438;2023-06-01T08:16:06;15.80;69.00
23560;DHT22;11958;50.836;4.438;2023-06-01T08:18:32;15.90;68.10
23560;DHT22;11958;50.836;4.438;2023-06-01T08:20:58;15.50;68.60
23560;DHT22;11958;50.836;4.438;2023-06-01T08:23:26;15.50;68.90
23560;DHT22;11958;50.836;4.438;2023-06-01T08:25:52;15.30;70.80
23560;DHT22;11958;50.836;4.438;2023-06-01T08:28:17;15.30;71.60
23560;DHT22;11958;50.836;4.438;2023-06-01T08:30:43;15.60;70.30
23560;DHT22;11958;50.836;4.438;2023-06-01T08:33:09;15.60;68.70
23560;DHT22;11958;50.836;4.438;2023-06-01T08:35:34;15.80;68.80
23560;DHT22;11958;50.836;4.438;2023-06-01T08:38:05;15.90;68.40
23560;DHT22;11958;50.836;4.438;2023-06-01T08:40:31;16.00;68.60
23560;DHT22;11958;50.836;4.438;2023-06-01T08:43:19;16.00;67.20
23560;DHT22;11958;50.836;4.438;2023-06-01T08:45:45;16.20;67.20
23560;DHT22;11958;50.836;4.438;2023-06-01T08:48:16;16.10;66.70
23560;DHT22;11958;50.836;4.438;2023-06-01T08:50:49;16.10;67.90
23560;DHT22;11958;50.836;4.438;2023-06-01T08:53:20;16.20;68.10
23560;DHT22;11958;50.836;4.438;2023-06-01T08:55:54;16.00;68.20
23560;DHT22;11958;50.836;4.438;2023-06-01T08:58:20;15.90;67.80
23560;DHT22;11958;50.836;4.438;2023-06-01T09:00:50;15.80;68.20
23560;DHT22;11958;50.836;4.438;2023-06-01T09:03:15;15.90;68.40
23560;DHT22;11958;50.836;4.438;2023-06-01T09:05:41;16.10;67.30
23560;DHT22;11958;50.836;4.438;2023-06-01T09:08:08;16.30;65.90
23560;DHT22;11958;50.836;4.438;2023-06-01T09:10:35;16.30;67.00
23560;DHT22;11958;50.836;4.438;2023-06-01T09:13:01;16.30;65.90
23560;DHT22;11958;50.836;4.438;2023-06-01T09:15:28;16.20;66.80
23560;DHT22;11958;50.836;4.438;2023-06-01T09:18:08;16.50;68.20
23560;DHT22;11958;50.836;4.438;2023-06-01T09:20:35;16.80;66.10
23560;DHT22;11958;50.836;4.438;2023-06-01T09:23:03;16.90;63.10
23560;DHT22;11958;50.836;4.438;2023-06-01T09:25:31;16.70;64.10
23560;DHT22;11958;50.836;4.438;2023-06-01T09:27:59;16.90;64.10
23560;DHT22;11958;50.836;4.438;2023-06-01T09:30:46;16.90;63.00
23560;DHT22;11958;50.836;4.438;2023-06-01T09:33:13;17.10;63.20
23560;DHT22;11958;50.836;4.438;2023-06-01T09:35:49;17.10;64.30
23560;DHT22;11958;50.836;4.438;2023-06-01T09:38:25;17.60;63.30
23560;DHT22;11958;50.836;4.438;2023-06-01T09:41:00;17.20;62.20
23560;DHT22;11958;50.836;4.438;2023-06-01T09:43:26;17.20;61.50
23560;DHT22;11958;50.836;4.438;2023-06-01T09:46:04;17.50;61.20
23560;DHT22;11958;50.836;4.438;2023-06-01T09:48:31;17.90;60.50
23560;DHT22;11958;50.836;4.438;2023-06-01T09:50:57;18.10;58.60
23560;DHT22;11958;50.836;4.438;2023-06-01T09:53:22;17.90;59.10
23560;DHT22;11958;50.836;4.438;2023-06-01T09:56:01;18.00;59.30
23560;DHT22;11958;50.836;4.438;2023-06-01T09:58:28;18.00;58.50
23560;DHT22;11958;50.836;4.438;2023-06-01T10:00:54;17.90;59.40
23560;DHT22;11958;50.836;4.438;2023-06-01T10:03:21;18.40;57.00
23560;DHT22;11958;50.836;4.438;2023-06-01T10:08:25;18.70;55.80
23560;DHT22;11958;50.836;4.438;2023-06-01T10:10:51;19.10;54.80
23560;DHT22;11958;50.836;4.438;2023-06-01T10:13:16;19.00;54.20
23560;DHT22;11958;50.836;4.438;2023-06-01T10:15:42;19.30;52.40
23560;DHT22;11958;50.836;4.438;2023-06-01T10:18:08;19.30;53.10
23560;DHT22;11958;50.836;4.438;2023-06-01T10:20:37;19.40;53.50
23560;DHT22;11958;50.836;4.438;2023-06-01T10:23:05;19.10;53.40
23560;DHT22;11958;50.836;4.438;2023-06-01T10:25:39;19.00;52.70
23560;DHT22;11958;50.836;4.438;2023-06-01T10:28:10;19.10;52.70
23560;DHT22;11958;50.836;4.438;2023-06-01T10:30:36;19.20;51.20
23560;DHT22;11958;50.836;4.438;2023-06-01T10:33:02;19.30;50.90
23560;DHT22;11958;50.836;4.438;2023-06-01T10:40:36;20.00;49.60
23560;DHT22;11958;50.836;4.438;2023-06-01T10:43:03;20.00;48.30
23560;DHT22;11958;50.836;4.438;2023-06-01T10:45:38;19.90;48.00
23560;DHT22;11958;50.836;4.438;2023-06-01T10:48:11;20.00;48.70
23560;DHT22;11958;50.836;4.438;2023-06-01T10:50:38;19.80;48.30
23560;DHT22;11958;50.836;4.438;2023-06-01T10:58:42;20.50;47.50
23560;DHT22;11958;50.836;4.438;2023-06-01T11:01:08;20.40;46.20
23560;DHT22;11958;50.836;4.438;2023-06-01T11:03:46;20.30;46.10
23560;DHT22;11958;50.836;4.438;2023-06-01T11:06:28;20.70;45.50
23560;DHT22;11958;50.836;4.438;2023-06-01T11:09:04;20.90;44.70
23560;DHT22;11958;50.836;4.438;2023-06-01T11:14:18;20.40;42.50
23560;DHT22;11958;50.836;4.438;2023-06-01T11:16:44;20.70;43.40
23560;DHT22;11958;50.836;4.438;2023-06-01T11:19:17;20.90;41.60
23560;DHT22;11958;50.836;4.438;2023-06-01T11:21:44;21.90;38.80
23560;DHT22;11958;50.836;4.438;2023-06-01T11:24:12;21.80;39.40
23560;DHT22;11958;50.836;4.438;2023-06-01T11:27:00;21.60;40.70
23560;DHT22;11958;50.836;4.438;2023-06-01T11:29:32;21.40;40.00
23560;DHT22;11958;50.836;4.438;2023-06-01T11:32:00;22.00;38.80
23560;DHT22;11958;50.836;4.438;2023-06-01T11:36:59;22.30;39.70
23560;DHT22;11958;50.836;4.438;2023-06-01T11:39:27;21.90;39.50
23560;DHT22;11958;50.836;4.438;2023-06-01T11:42:15;21.60;39.50
23560;DHT22;11958;50.836;4.438;2023-06-01T11:44:45;21.60;40.80
23560;DHT22;11958;50.836;4.438;2023-06-01T11:47:14;21.30;40.70
23560;DHT22;11958;50.836;4.438;2023-06-01T11:49:45;21.70;41.20
23560;DHT22;11958;50.836;4.438;2023-06-01T11:52:13;21.70;41.10
23560;DHT22;11958;50.836;4.438;2023-06-01T11:54:40;21.70;40.40
23560;DHT22;11958;50.836;4.438;2023-06-01T11:57:06;21.70;40.50
23560;DHT22;11958;50.836;4.438;2023-06-01T11:59:46;21.70;37.90
23560;DHT22;11958;50.836;4.438;2023-06-01T12:02:23;21.70;38.80
23560;DHT22;11958;50.836;4.438;2023-06-01T12:05:03;21.60;38.70
23560;DHT22;11958;50.836;4.438;2023-06-01T12:07:50;21.70;39.30
23560;DHT22;11958;50.836;4.438;2023-06-01T12:10:20;22.00;38.80
23560;DHT22;11958;50.836;4.438;2023-06-01T12:12:46;22.50;35.80
23560;DHT22;11958;50.836;4.438;2023-06-01T12:15:16;23.20;35.80
23560;DHT22;11958;50.836;4.438;2023-06-01T12:17:55;24.00;34.90
23560;DHT22;11958;50.836;4.438;2023-06-01T12:20:42;24.80;33.10
23560;DHT22;11958;50.836;4.438;2023-06-01T12:25:55;25.60;29.90
23560;DHT22;11958;50.836;4.438;2023-06-01T12:28:24;25.20;30.80
23560;DHT22;11958;50.836;4.438;2023-06-01T12:31:10;25.80;31.10
23560;DHT22;11958;50.836;4.438;2023-06-01T12:33:37;26.40;28.40
23560;DHT22;11958;50.836;4.438;2023-06-01T12:36:04;26.40;29.50
23560;DHT22;11958;50.836;4.438;2023-06-01T12:38:36;26.90;27.80
23560;DHT22;11958;50.836;4.438;2023-06-01T12:41:10;27.20;27.70
23560;DHT22;11958;50.836;4.438;2023-06-01T12:43:38;26.40;26.30
23560;DHT22;11958;50.836;4.438;2023-06-01T12:46:04;26.40;27.20
23560;DHT22;11958;50.836;4.438;2023-06-01T12:48:39;26.40;28.00
23560;DHT22;11958;50.836;4.438;2023-06-01T12:51:05;27.50;27.00
23560;DHT22;11958;50.836;4.438;2023-06-01T12:53:31;28.50;25.10
23560;DHT22;11958;50.836;4.438;2023-06-01T12:55:56;28.70;24.00
23560;DHT22;11958;50.836;4.438;2023-06-01T12:58:22;28.20;23.70
23560;DHT22;11958;50.836;4.438;2023-06-01T13:00:48;27.90;23.90
23560;DHT22;11958;50.836;4.438;2023-06-01T13:03:14;28.00;23.70
23560;DHT22;11958;50.836;4.438;2023-06-01T13:05:42;28.30;23.70
23560;DHT22;11958;50.836;4.438;2023-06-01T13:08:13;27.70;24.70
23560;DHT22;11958;50.836;4.438;2023-06-01T13:10:39;27.90;24.50
23560;DHT22;11958;50.836;4.438;2023-06-01T13:13:07;27.90;23.40
23560;DHT22;11958;50.836;4.438;2023-06-01T13:15:33;27.90;22.70
23560;DHT22;11958;50.836;4.438;2023-06-01T13:18:14;28.30;23.20
23560;DHT22;11958;50.836;4.438;2023-06-01T13:20:39;28.20;23.60
23560;DHT22;11958;50.836;4.438;2023-06-01T13:23:05;28.40;24.00
23560;DHT22;11958;50.836;4.438;2023-06-01T13:25:32;28.20;22.40
23560;DHT22;11958;50.836;4.438;2023-06-01T13:28:01;28.10;23.00
23560;DHT22;11958;50.836;4.438;2023-06-01T13:30:27;28.60;23.20
23560;DHT22;11958;50.836;4.438;2023-06-01T13:32:55;28.50;23.00
23560;DHT22;11958;50.836;4.438;2023-06-01T13:35:21;28.10;23.80
23560;DHT22;11958;50.836;4.438;2023-06-01T13:37:49;28.60;22.70
23560;DHT22;11958;50.836;4.438;2023-06-01T13:40:15;28.10;23.10
23560;DHT22;11958;50.836;4.438;2023-06-01T13:42:44;27.90;23.70
23560;DHT22;11958;50.836;4.438;2023-06-01T13:45:11;29.10;21.70
23560;DHT22;11958;50.836;4.438;2023-06-01T13:47:37;28.80;22.70
23560;DHT22;11958;50.836;4.438;2023-06-01T13:50:03;28.70;22.60
23560;DHT22;11958;50.836;4.438;2023-06-01T13:52:30;29.20;22.00
23560;DHT22;11958;50.836;4.438;2023-06-01T13:54:55;30.40;20.90
23560;DHT22;11958;50.836;4.438;2023-06-01T13:57:21;30.10;20.40
23560;DHT22;11958;50.836;4.438;2023-06-01T13:59:47;29.00;22.80
23560;DHT22;11958;50.836;4.438;2023-06-01T14:02:13;29.30;21.20
23560;DHT22;11958;50.836;4.438;2023-06-01T14:04:39;29.00;21.60
23560;DHT22;11958;50.836;4.438;2023-06-01T14:07:05;29.00;21.70
23560;DHT22;11958;50.836;4.438;2023-06-01T14:09:31;29.30;21.30
23560;DHT22;11958;50.836;4.438;2023-06-01T14:11:57;28.90;22.80
23560;DHT22;11958;50.836;4.438;2023-06-01T14:14:22;28.90;22.90
23560;DHT22;11958;50.836;4.438;2023-06-01T14:16:48;28.60;22.90
23560;DHT22;11958;50.836;4.438;2023-06-01T14:19:14;28.50;22.90
23560;DHT22;11958;50.836;4.438;2023-06-01T14:21:40;28.90;22.70
23560;DHT22;11958;50.836;4.438;2023-06-01T14:24:06;28.80;21.30
23560;DHT22;11958;50.836;4.438;2023-06-01T14:26:35;28.90;22.20
23560;DHT22;11958;50.836;4.438;2023-06-01T14:29:01;29.00;22.80
23560;DHT22;11958;50.836;4.438;2023-06-01T14:31:26;29.90;21.10
23560;DHT22;11958;50.836;4.438;2023-06-01T14:33:52;30.40;20.50
23560;DHT22;11958;50.836;4.438;2023-06-01T14:36:17;30.90;19.70
23560;DHT22;11958;50.836;4.438;2023-06-01T14:38:45;30.30;20.00
23560;DHT22;11958;50.836;4.438;2023-06-01T14:41:11;30.20;19.50
23560;DHT22;11958;50.836;4.438;2023-06-01T14:43:37;30.10;20.20
23560;DHT22;11958;50.836;4.438;2023-06-01T14:46:04;30.00;19.90
23560;DHT22;11958;50.836;4.438;2023-06-01T14:48:33;30.50;20.10
23560;DHT22;11958;50.836;4.438;2023-06-01T14:51:01;30.00;20.50
23560;DHT22;11958;50.836;4.438;2023-06-01T14:53:27;30.60;20.60
23560;DHT22;11958;50.836;4.438;2023-06-01T14:55:53;29.90;21.30
23560;DHT22;11958;50.836;4.438;2023-06-01T14:58:19;29.10;22.50
23560;DHT22;11958;50.836;4.438;2023-06-01T15:00:45;29.40;21.70
23560;DHT22;11958;50.836;4.438;2023-06-01T15:03:14;30.10;20.50
23560;DHT22;11958;50.836;4.438;2023-06-01T15:05:39;30.10;20.00
23560;DHT22;11958;50.836;4.438;2023-06-01T15:08:05;29.30;20.90
23560;DHT22;11958;50.836;4.438;2023-06-01T15:10:32;28.60;20.50
23560;DHT22;11958;50.836;4.438;2023-06-01T15:12:58;28.50;20.40
23560;DHT22;11958;50.836;4.438;2023-06-01T15:15:24;27.80;20.80
23560;DHT22;11958;50.836;4.438;2023-06-01T15:17:49;26.40;22.50
23560;DHT22;11958;50.836;4.438;2023-06-01T15:20:15;26.00;23.40
23560;DHT22;11958;50.836;4.438;2023-06-01T15:22:41;25.50;25.10
23560;DHT22;11958;50.836;4.438;2023-06-01T15:25:07;24.90;25.60
23560;DHT22;11958;50.836;4.438;2023-06-01T15:27:33;24.50;27.00
23560;DHT22;11958;50.836;4.438;2023-06-01T15:29:59;24.20;28.40
23560;DHT22;11958;50.836;4.438;2023-06-01T15:32:25;23.90;28.60
23560;DHT22;11958;50.836;4.438;2023-06-01T15:34:51;23.80;27.90
23560;DHT22;11958;50.836;4.438;2023-06-01T15:37:16;23.60;28.70
23560;DHT22;11958;50.836;4.438;2023-06-01T15:39:45;23.50;30.10
23560;DHT22;11958;50.836;4.438;2023-06-01T15:42:11;23.50;31.20
23560;DHT22;11958;50.836;4.438;2023-06-01T15:44:43;23.30;31.10
23560;DHT22;11958;50.836;4.438;2023-06-01T15:47:10;23.20;31.50
23560;DHT22;11958;50.836;4.438;2023-06-01T15:49:39;23.30;31.60
23560;DHT22;11958;50.836;4.438;2023-06-01T15:52:05;23.50;32.30
23560;DHT22;11958;50.836;4.438;2023-06-01T15:54:31;23.30;31.50
23560;DHT22;11958;50.836;4.438;2023-06-01T15:56:58;23.50;31.10
23560;DHT22;11958;50.836;4.438;2023-06-01T15:59:23;23.50;31.60
23560;DHT22;11958;50.836;4.438;2023-06-01T16:01:49;23.40;32.00
23560;DHT22;11958;50.836;4.438;2023-06-01T16:04:16;23.50;31.30
23560;DHT22;11958;50.836;4.438;2023-06-01T16:06:42;23.50;31.70
23560;DHT22;11958;50.836;4.438;2023-06-01T16:09:08;23.30;32.00
23560;DHT22;11958;50.836;4.438;2023-06-01T16:11:36;23.30;31.80
23560;DHT22;11958;50.836;4.438;2023-06-01T16:14:02;23.10;32.80
23560;DHT22;11958;50.836;4.438;2023-06-01T16:16:30;22.80;33.70
23560;DHT22;11958;50.836;4.438;2023-06-01T16:18:57;22.60;34.80
23560;DHT22;11958;50.836;4.438;2023-06-01T16:21:22;22.80;34.40
23560;DHT22;11958;50.836;4.438;2023-06-01T16:23:48;22.60;34.80
23560;DHT22;11958;50.836;4.438;2023-06-01T16:26:14;22.60;34.60
23560;DHT22;11958;50.836;4.438;2023-06-01T16:28:40;22.50;35.10
23560;DHT22;11958;50.836;4.438;2023-06-01T16:31:05;22.50;35.80
23560;DHT22;11958;50.836;4.438;2023-06-01T16:33:31;22.50;35.80
23560;DHT22;11958;50.836;4.438;2023-06-01T16:35:57;22.30;36.20
23560;DHT22;11958;50.836;4.438;2023-06-01T16:38:23;22.50;35.80
23560;DHT22;11958;50.836;4.438;2023-06-01T16:40:48;22.30;35.60
23560;DHT22;11958;50.836;4.438;2023-06-01T16:43:14;22.30;36.20
23560;DHT22;11958;50.836;4.438;2023-06-01T16:45:44;22.10;37.00
23560;DHT22;11958;50.836;4.438;2023-06-01T16:48:09;22.40;37.00
23560;DHT22;11958;50.836;4.438;2023-06-01T16:50:35;22.20;36.70
23560;DHT22;11958;50.836;4.438;2023-06-01T16:53:01;22.00;37.10
23560;DHT22;11958;50.836;4.438;2023-06-01T16:55:27;21.90;37.60
23560;DHT22;11958;50.836;4.438;2023-06-01T16:57:53;22.00;37.80
23560;DHT22;11958;50.836;4.438;2023-06-01T17:00:19;21.90;38.20
23560;DHT22;11958;50.836;4.438;2023-06-01T17:02:45;21.70;37.90
23560;DHT22;11958;50.836;4.438;2023-06-01T17:05:11;21.70;37.90
23560;DHT22;11958;50.836;4.438;2023-06-01T17:07:38;21.70;38.40
23560;DHT22;11958;50.836;4.438;2023-06-01T17:10:04;21.70;38.10
23560;DHT22;11958;50.836;4.438;2023-06-01T17:12:30;21.80;38.80
23560;DHT22;11958;50.836;4.438;2023-06-01T17:14:56;21.70;38.40
23560;DHT22;11958;50.836;4.438;2023-06-01T17:17:21;21.70;38.90
23560;DHT22;11958;50.836;4.438;2023-06-01T17:19:52;21.50;38.50
23560;DHT22;11958;50.836;4.438;2023-06-01T17:22:18;21.40;39.80
23560;DHT22;11958;50.836;4.438;2023-06-01T17:24:44;21.40;39.50
23560;DHT22;11958;50.836;4.438;2023-06-01T17:27:10;21.30;39.60
23560;DHT22;11958;50.836;4.438;2023-06-01T17:29:36;21.30;40.00
23560;DHT22;11958;50.836;4.438;2023-06-01T17:32:02;21.20;40.00
23560;DHT22;11958;50.836;4.438;2023-06-01T17:34:28;21.30;39.70
23560;DHT22;11958;50.836;4.438;2023-06-01T17:36:54;21.10;39.90
23560;DHT22;11958;50.836;4.438;2023-06-01T17:39:19;21.20;39.80
23560;DHT22;11958;50.836;4.438;2023-06-01T17:41:50;21.10;40.20
23560;DHT22;11958;50.836;4.438;2023-06-01T17:44:17;21.10;40.10
23560;DHT22;11958;50.836;4.438;2023-06-01T17:46:44;21.10;40.30
23560;DHT22;11958;50.836;4.438;2023-06-01T17:49:10;21.00;40.50
23560;DHT22;11958;50.836;4.438;2023-06-01T17:51:36;21.10;39.70
23560;DHT22;11958;50.836;4.438;2023-06-01T17:54:05;21.00;39.70
23560;DHT22;11958;50.836;4.438;2023-06-01T17:56:31;20.90;43.10
23560;DHT22;11958;50.836;4.438;2023-06-01T17:59:00;20.90;46.10
23560;DHT22;11958;50.836;4.438;2023-06-01T18:01:29;20.80;46.70
23560;DHT22;11958;50.836;4.438;2023-06-01T18:03:55;20.80;47.70
23560;DHT22;11958;50.836;4.438;2023-06-01T18:06:21;20.40;49.20
23560;DHT22;11958;50.836;4.438;2023-06-01T18:08:47;20.40;50.10
23560;DHT22;11958;50.836;4.438;2023-06-01T18:11:20;20.00;50.80
23560;DHT22;11958;50.836;4.438;2023-06-01T18:13:46;20.00;51.80
23560;DHT22;11958;50.836;4.438;2023-06-01T18:16:14;19.80;51.60
23560;DHT22;11958;50.836;4.438;2023-06-01T18:18:40;19.70;52.60
23560;DHT22;11958;50.836;4.438;2023-06-01T18:21:06;19.70;53.00
23560;DHT22;11958;50.836;4.438;2023-06-01T18:23:31;19.70;51.70
23560;DHT22;11958;50.836;4.438;2023-06-01T18:25:57;19.60;51.50
23560;DHT22;11958;50.836;4.438;2023-06-01T18:28:23;19.60;50.60
23560;DHT22;11958;50.836;4.438;2023-06-01T18:30:48;19.50;50.10
23560;DHT22;11958;50.836;4.438;2023-06-01T18:33:17;19.30;51.50
23560;DHT22;11958;50.836;4.438;2023-06-01T18:35:46;18.90;51.80
23560;DHT22;11958;50.836;4.438;2023-06-01T18:38:14;18.80;52.60
23560;DHT22;11958;50.836;4.438;2023-06-01T18:40:41;18.80;52.30
23560;DHT22;11958;50.836;4.438;2023-06-01T18:43:07;18.60;54.20
23560;DHT22;11958;50.836;4.438;2023-06-01T18:45:36;18.50;54.10
23560;DHT22;11958;50.836;4.438;2023-06-01T18:48:03;18.40;53.20
23560;DHT22;11958;50.836;4.438;2023-06-01T18:50:30;18.30;54.00
23560;DHT22;11958;50.836;4.438;2023-06-01T18:52:56;18.30;53.50
23560;DHT22;11958;50.836;4.438;2023-06-01T18:55:22;18.30;54.10
23560;DHT22;11958;50.836;4.438;2023-06-01T18:57:47;18.10;55.40
23560;DHT22;11958;50.836;4.438;2023-06-01T19:00:14;18.10;55.60
23560;DHT22;11958;50.836;4.438;2023-06-01T19:02:40;17.90;55.60
23560;DHT22;11958;50.836;4.438;2023-06-01T19:05:08;17.90;56.10
23560;DHT22;11958;50.836;4.438;2023-06-01T19:07:38;17.70;56.40
23560;DHT22;11958;50.836;4.438;2023-06-01T19:10:08;17.40;56.60
23560;DHT22;11958;50.836;4.438;2023-06-01T19:12:34;17.30;56.60
23560;DHT22;11958;50.836;4.438;2023-06-01T19:15:00;17.00;57.20
23560;DHT22;11958;50.836;4.438;2023-06-01T19:17:26;17.10;57.30
23560;DHT22;11958;50.836;4.438;2023-06-01T19:19:52;17.10;57.70
23560;DHT22;11958;50.836;4.438;2023-06-01T19:22:31;16.90;58.20
23560;DHT22;11958;50.836;4.438;2023-06-01T19:25:01;16.80;58.60
23560;DHT22;11958;50.836;4.438;2023-06-01T19:27:27;16.70;59.20
23560;DHT22;11958;50.836;4.438;2023-06-01T19:29:53;16.60;59.20
23560;DHT22;11958;50.836;4.438;2023-06-01T19:32:19;16.50;59.80
23560;DHT22;11958;50.836;4.438;2023-06-01T19:34:45;16.30;60.90
23560;DHT22;11958;50.836;4.438;2023-06-01T19:37:11;16.20;61.30
23560;DHT22;11958;50.836;4.438;2023-06-01T19:39:45;16.10;61.70
23560;DHT22;11958;50.836;4.438;2023-06-01T19:44:44;16.00;62.40
23560;DHT22;11958;50.836;4.438;2023-06-01T19:49:54;15.80;62.60
23560;DHT22;11958;50.836;4.438;2023-06-01T19:52:39;15.70;63.10
23560;DHT22;11958;50.836;4.438;2023-06-01T19:55:11;15.50;63.20
23560;DHT22;11958;50.836;4.438;2023-06-01T19:57:37;15.50;63.40
23560;DHT22;11958;50.836;4.438;2023-06-01T20:00:09;15.50;64.00
23560;DHT22;11958;50.836;4.438;2023-06-01T20:03:05;15.50;63.70
23560;DHT22;11958;50.836;4.438;2023-06-01T20:05:33;15.30;65.50
23560;DHT22;11958;50.836;4.438;2023-06-01T20:08:00;15.30;65.60
23560;DHT22;11958;50.836;4.438;2023-06-01T20:10:28;15.30;66.10
23560;DHT22;11958;50.836;4.438;2023-06-01T20:13:00;15.30;65.90
23560;DHT22;11958;50.836;4.438;2023-06-01T20:15:38;15.30;64.80
23560;DHT22;11958;50.836;4.438;2023-06-01T20:18:10;15.30;63.80
23560;DHT22;11958;50.836;4.438;2023-06-01T20:20:48;15.20;63.50
23560;DHT22;11958;50.836;4.438;2023-06-01T20:23:17;15.20;63.10
23560;DHT22;11958;50.836;4.438;2023-06-01T20:25:44;15.00;63.50
23560;DHT22;11958;50.836;4.438;2023-06-01T20:28:12;15.00;63.80
23560;DHT22;11958;50.836;4.438;2023-06-01T20:31:04;15.00;63.20
23560;DHT22;11958;50.836;4.438;2023-06-01T20:33:32;15.00;63.50
23560;DHT22;11958;50.836;4.438;2023-06-01T20:36:04;14.80;64.00
23560;DHT22;11958;50.836;4.438;2023-06-01T20:38:36;14.80;64.20
23560;DHT22;11958;50.836;4.438;2023-06-01T20:41:14;14.80;64.00
23560;DHT22;11958;50.836;4.438;2023-06-01T20:44:19;15.00;63.50
23560;DHT22;11958;50.836;4.438;2023-06-01T20:47:25;15.20;63.30
23560;DHT22;11958;50.836;4.438;2023-06-01T20:50:01;15.20;62.60
23560;DHT22;11958;50.836;4.438;2023-06-01T20:52:27;15.00;63.10
23560;DHT22;11958;50.836;4.438;2023-06-01T20:55:13;15.00;63.10
23560;DHT22;11958;50.836;4.438;2023-06-01T20:57:41;15.00;63.50
23560;DHT22;11958;50.836;4.438;2023-06-01T21:00:12;15.00;62.70
23560;DHT22;11958;50.836;4.438;2023-06-01T21:02:39;14.90;62.70
23560;DHT22;11958;50.836;4.438;2023-06-01T21:05:33;14.80;63.10
23560;DHT22;11958;50.836;4.438;2023-06-01T21:07:59;15.00;63.30
23560;DHT22;11958;50.836;4.438;2023-06-01T21:10:24;15.00;63.00
23560;DHT22;11958;50.836;4.438;2023-06-01T21:12:50;15.30;61.30
23560;DHT22;11958;50.836;4.438;2023-06-01T21:15:16;15.20;61.90